createdAt,value
2022-10-08T00:01:50.503Z,100561.88
2022-10-08T00:32:35.382Z,100548.72
2022-10-08T01:17:38.958Z,100508.34
2022-10-08T01:20:37.564Z,100514.03
2022-10-08T01:27:06.975Z,100506.69
2022-10-08T01:47:49.443Z,100478.25
2022-10-08T02:11:16.823Z,100477.22
2022-10-08T03:08:40.906Z,100449.19
2022-10-08T03:18:43.816Z,100455.13
2022-10-08T04:29:25.419Z,100435.97
2022-10-08T04:44:35.715Z,100439.47
2022-10-08T04:47:11.492Z,100439.44
2022-10-08T05:18:37.420Z,100446.09
2022-10-08T05:23:44.543Z,100445.91
2022-10-08T05:35:31.390Z,100443.72
2022-10-08T06:10:17.199Z,100478.19
2022-10-08T06:17:54.366Z,100480.47
2022-10-08T06:34:16.717Z,100492.97
2022-10-08T07:24:09.507Z,100493.56
2022-10-08T07:27:01.413Z,100501.56
2022-10-08T08:48:39.498Z,100480.63
2022-10-08T08:51:15.803Z,100482.41
2022-10-08T08:53:42.841Z,100486.00
2022-10-08T08:56:16.033Z,100479.84
2022-10-08T08:59:01.084Z,100477.59
2022-10-08T10:04:02.058Z,100452.69
2022-10-08T10:06:33.493Z,100455.00
2022-10-08T10:38:15.989Z,100416.25
2022-10-08T10:40:46.513Z,100411.84
2022-10-08T10:43:48.347Z,100408.81
2022-10-08T10:46:54.920Z,100396.94
2022-10-08T11:00:55.978Z,100376.81
2022-10-08T11:04:13.847Z,100383.13
2022-10-08T11:16:17.241Z,100366.25
2022-10-08T11:31:27.182Z,100366.31
2022-10-08T11:33:56.231Z,100356.88
2022-10-08T11:36:29.268Z,100356.88
2022-10-08T11:39:54.936Z,100353.53
2022-10-08T11:42:21.511Z,100341.25
2022-10-08T11:44:48.132Z,100349.41
2022-10-08T11:47:40.176Z,100341.38
2022-10-08T11:58:23.690Z,100332.44
2022-10-08T12:00:53.577Z,100325.75
2022-10-08T12:09:22.361Z,100318.34
2022-10-08T12:56:50.322Z,100278.59
2022-10-08T12:59:18.554Z,100270.16
2022-10-08T13:10:21.439Z,100275.03
2022-10-08T13:13:26.894Z,100268.31
2022-10-08T13:16:01.745Z,100255.94
2022-10-08T13:41:08.974Z,100253.81
2022-10-08T13:43:35.637Z,100256.94
2022-10-08T13:46:02.489Z,100252.09
2022-10-08T13:48:29.070Z,100239.06
2022-10-08T13:50:57.257Z,100248.22
2022-10-08T14:00:26.790Z,100236.63
2022-10-08T14:02:55.993Z,100235.81
2022-10-08T14:05:24.013Z,100232.59
2022-10-08T14:08:42.528Z,100236.06
2022-10-08T14:11:09.557Z,100232.84
2022-10-08T14:14:21.110Z,100232.34
2022-10-08T14:16:50.933Z,100229.34
2022-10-08T15:01:11.043Z,100207.16
2022-10-08T15:07:52.701Z,100214.22
2022-10-08T15:10:19.347Z,100209.50
2022-10-08T15:12:47.753Z,100206.72
2022-10-08T15:15:14.558Z,100205.53
2022-10-08T15:17:41.150Z,100198.25
2022-10-08T15:44:20.870Z,100204.47
2022-10-08T15:47:08.176Z,100202.81
2022-10-08T16:23:38.540Z,100222.38
2022-10-08T16:51:29.833Z,100232.72
2022-10-08T16:53:58.589Z,100236.59
2022-10-08T16:56:28.159Z,100244.72
2022-10-08T16:59:05.209Z,100245.22
2022-10-08T17:01:33.026Z,100253.19
2022-10-08T17:04:00.391Z,100240.66
2022-10-08T17:06:31.212Z,100243.72
2022-10-08T17:09:00.386Z,100250.56
2022-10-08T17:11:27.061Z,100249.25
2022-10-08T17:13:57.877Z,100252.62
2022-10-08T17:16:26.684Z,100251.09
2022-10-08T17:19:01.575Z,100255.16
2022-10-08T17:21:29.999Z,100253.81
2022-10-08T17:24:04.280Z,100251.06
2022-10-08T17:26:32.483Z,100259.34
2022-10-08T17:29:17.975Z,100251.72
2022-10-08T17:31:44.579Z,100255.88
2022-10-08T17:34:11.911Z,100260.75
2022-10-08T17:36:46.201Z,100266.53
2022-10-08T17:39:15.407Z,100272.03
2022-10-08T17:44:24.338Z,100270.25
2022-10-08T17:46:52.118Z,100262.56
2022-10-08T17:49:20.458Z,100279.72
2022-10-08T17:51:47.836Z,100274.63
2022-10-08T17:54:18.358Z,100272.06
2022-10-08T18:10:54.409Z,100286.28
2022-10-08T18:13:24.618Z,100274.72
2022-10-08T18:18:48.076Z,100284.75
2022-10-08T18:21:16.914Z,100287.09
2022-10-08T18:23:46.034Z,100289.31
2022-10-08T18:26:27.489Z,100290.34
2022-10-08T18:28:56.416Z,100289.91
2022-10-08T18:31:42.599Z,100305.00
2022-10-08T18:34:30.782Z,100302.59
2022-10-08T18:37:02.725Z,100300.72
2022-10-08T18:39:29.258Z,100299.50
2022-10-08T18:41:55.835Z,100305.97
2022-10-08T18:44:24.818Z,100300.03
2022-10-08T18:46:53.297Z,100304.44
2022-10-08T18:49:28.984Z,100300.34
2022-10-08T18:52:02.053Z,100300.63
2022-10-08T18:54:29.056Z,100296.44
2022-10-08T18:56:56.833Z,100306.97
2022-10-08T18:59:23.494Z,100302.94
2022-10-08T19:01:50.115Z,100319.72
2022-10-08T19:04:21.896Z,100312.91
2022-10-08T19:07:01.131Z,100308.88
2022-10-08T19:09:52.728Z,100304.69
2022-10-08T19:12:19.350Z,100304.72
2022-10-08T19:14:47.124Z,100304.84
2022-10-08T19:17:13.665Z,100323.72
2022-10-08T19:19:40.191Z,100319.84
2022-10-08T19:22:06.748Z,100330.34
2022-10-08T19:24:35.482Z,100324.53
2022-10-08T19:27:04.305Z,100325.75
2022-10-08T19:29:33.720Z,100328.31
2022-10-08T19:32:00.358Z,100328.31
2022-10-08T19:34:28.057Z,100334.19
2022-10-08T19:36:55.323Z,100332.09
2022-10-08T19:39:24.599Z,100330.50
2022-10-08T19:41:51.372Z,100329.09
2022-10-08T19:44:18.829Z,100329.69
2022-10-08T19:46:46.403Z,100326.94
2022-10-08T19:49:13.416Z,100331.53
2022-10-08T19:51:40.673Z,100323.12
2022-10-08T19:54:08.656Z,100321.81
2022-10-08T19:56:35.980Z,100324.66
2022-10-08T19:59:02.616Z,100320.81
2022-10-08T20:01:32.141Z,100310.53
2022-10-08T20:04:00.400Z,100319.13
2022-10-08T20:06:29.570Z,100321.22
2022-10-08T20:08:58.955Z,100328.19
2022-10-08T20:11:28.745Z,100334.31
2022-10-08T20:13:55.709Z,100329.78
2022-10-08T20:16:25.218Z,100343.62
2022-10-08T20:18:59.341Z,100337.75
2022-10-08T20:21:27.476Z,100340.28
2022-10-08T20:23:54.059Z,100340.56
2022-10-08T20:26:21.993Z,100342.37
2022-10-08T20:28:51.444Z,100344.94
2022-10-08T20:31:24.348Z,100344.31
2022-10-08T20:34:00.975Z,100348.38
2022-10-08T20:36:28.492Z,100351.03
2022-10-08T20:38:55.463Z,100352.87
2022-10-08T20:41:25.468Z,100355.06
2022-10-08T20:43:56.814Z,100347.56
2022-10-08T20:46:23.414Z,100348.41
2022-10-08T20:48:49.973Z,100348.56
2022-10-08T20:51:20.005Z,100350.62
2022-10-08T20:53:48.041Z,100350.62
2022-10-08T20:56:15.364Z,100347.69
2022-10-08T20:58:42.035Z,100352.37
2022-10-08T21:01:18.603Z,100349.66
2022-10-08T21:03:46.265Z,100355.87
2022-10-08T21:06:19.491Z,100346.06
2022-10-08T21:08:48.601Z,100346.63
2022-10-08T21:11:17.873Z,100355.25
2022-10-08T21:13:45.293Z,100356.25
2022-10-08T21:16:14.045Z,100356.16
2022-10-08T21:18:41.553Z,100355.13
2022-10-08T21:21:11.070Z,100342.69
2022-10-08T21:23:38.492Z,100338.19
2022-10-08T21:26:16.795Z,100337.28
2022-10-08T21:28:46.036Z,100337.69
2022-10-08T21:31:13.790Z,100344.19
2022-10-08T21:33:42.670Z,100344.59
2022-10-08T21:36:12.705Z,100346.47
2022-10-08T21:38:39.319Z,100343.09
2022-10-08T21:41:37.822Z,100345.75
2022-10-08T21:44:29.056Z,100344.12
2022-10-08T21:47:00.879Z,100338.91
2022-10-08T21:49:27.639Z,100340.38
2022-10-08T21:51:54.168Z,100325.88
2022-10-08T21:54:20.684Z,100338.16
2022-10-08T21:56:47.434Z,100334.59
2022-10-08T21:59:16.212Z,100341.72
2022-10-08T22:01:50.921Z,100346.09
2022-10-08T22:04:20.544Z,100351.91
2022-10-08T22:06:53.162Z,100349.37
2022-10-08T22:09:22.548Z,100356.31
2022-10-08T22:11:50.307Z,100357.31
2022-10-08T22:14:17.803Z,100347.75
2022-10-08T22:17:28.421Z,100355.13
2022-10-08T22:20:07.410Z,100358.69
2022-10-08T22:22:33.945Z,100360.00
2022-10-08T22:25:00.487Z,100359.06
2022-10-08T22:27:27.019Z,100360.13
2022-10-08T22:29:53.551Z,100358.87
2022-10-08T22:32:20.064Z,100357.97
2022-10-08T22:34:46.642Z,100366.63
2022-10-08T22:37:13.166Z,100367.47
2022-10-08T22:39:39.987Z,100373.56
2022-10-08T22:42:06.498Z,100372.37
2022-10-08T22:44:33.046Z,100372.16
2022-10-08T22:46:59.576Z,100370.00
2022-10-08T22:49:26.189Z,100364.88
2022-10-08T22:51:58.915Z,100373.34
2022-10-08T22:54:25.831Z,100377.34
2022-10-08T22:56:52.382Z,100379.78
2022-10-08T22:59:19.090Z,100373.00
2022-10-08T23:01:45.657Z,100378.25
2022-10-08T23:04:12.219Z,100377.00
2022-10-08T23:09:53.296Z,100381.72
2022-10-08T23:12:19.882Z,100387.84
2022-10-08T23:14:46.459Z,100382.75
2022-10-08T23:17:13.003Z,100391.12
2022-10-08T23:19:39.540Z,100390.38
2022-10-08T23:22:06.054Z,100393.72
2022-10-08T23:24:44.915Z,100393.84
2022-10-08T23:27:11.449Z,100390.97
2022-10-08T23:29:37.980Z,100391.41
2022-10-08T23:32:04.558Z,100391.69
2022-10-08T23:34:31.144Z,100399.84
2022-10-08T23:36:57.680Z,100395.16
2022-10-08T23:39:24.269Z,100391.31
2022-10-08T23:42:03.349Z,100390.81
2022-10-08T23:44:42.597Z,100396.31
2022-10-08T23:47:09.112Z,100387.97
2022-10-08T23:49:35.644Z,100394.28
2022-10-08T23:52:02.155Z,100388.25
2022-10-08T23:54:28.698Z,100398.66
2022-10-08T23:56:55.246Z,100396.97
2022-10-08T23:59:36.952Z,100399.06
